Meadow Creek, WV (25977)

11:31 AM EDT on October 02, 2014 (GMT -0400)
Bluestone Dam - Meador | Change Station
CLOSE
Current Station
Personal Weather Station
Location: Hinton, WV
Elevation: 1394 ft
Nearby Weather Stations

Elev 1394 ft 37.65 °N, 80.88 °W | Updated 1 minute ago

Clear
Clear
72.0 °F
Feels Like 76 °F
N
3.1
Wind Variable Wind from East
Gusts 3.1 mph

Today
High -- | Low -- °F
--% Chance of Precip.
Yesterday
High -- | Low -- °F
Precip. -- in
7:20 AM 7:05 PM
First Quarter, 59% visible
Pressure 30.18 in
Visibility 10.0 miles
Clouds Clear
Heat Index 76 °F
Dew Point 59 °F
Humidity 64%
Rainfall 0.00 in
Snow Depth Not available.
UV 4 out of 12
Pollen 3.90 out of 12
Air Quality Not available.
Flu Activity Not available.
METAR KBKW 021451Z AUTO 26004KT 10SM CLR 22/12 A3018

More Conditions Fewer Conditions

Pressure 30.18 in
Visibility 10.0 miles
Clouds Clear
Heat Index 76 °F
Dew Point 59 °F
Humidity 64%
Rainfall 0.00 in
Snow Depth Not available.
UV 4 out of 12
Pollen 3.90 out of 12
Air Quality Not available.
Flu Activity Not available.
METAR KBKW 021451Z AUTO 26004KT 10SM CLR 22/12 A3018

More Conditions Fewer Conditions

10-Day Weather Forecast

Almanac

Astronomy

Oct. 02, 2014 Rise Set
Actual Time 7:20 AM EDT 7:05 PM EDT
Civil Twilight 6:53 AM EDT 7:31 PM EDT
Nautical Twilight 6:23 AM EDT 8:01 PM EDT
Astronomical Twilight 5:52 AM EDT 8:32 PM EDT
Moon 3:04 PM EDT 12:41 AM EDT
Length of Visible Light 12h 37m
Length of Day
11h 45m
Tomorrow will be 2m 24s shorter.
First Quarter, 59% of the Moon is Illuminated
Today
First Quarter
Oct 8
Full
Oct 15
Last Quarter
Oct 23
New
Oct 30
First Quarter

Today's Extremes

State Highs State Lows

Community

WunderPhotos

Upload Photos

1,758,276 photos uploaded!

WunderBlogs® & News

Nearby

Snow Depth

Station Depth Elevation
No new snow has been reported.

Earthquake Activity

City Distance Mag. Time & Date
No recent earthquake activity has been reported nearby.
Minimum magnitude displayed is 2.5.

Coastal Water Temperatures

Place Temperature
No Stations Reporting

Nearby Weather Stations